Time;durP1;ratioP1;P1;durP2;ratioP2;P2;SDS_P1;SDS_P2;PMS_P1;PMS_P2;Temp;Humidity;BMP_temperature;BMP_pressure;BME280_temperature;BME280_humidity;BME280_pressure;Samples;Min_cycle;Max_cycle;Signal;HPM_P1;HPM_P2
2022/04/21 00:01:04;;;;;;;;;;;;;;;22.51;29.05;101160.38;7281333;19;153187;-64
2022/04/21 00:03:31;;;;;;;;;;;;;;;22.49;28.86;101162.66;7281282;19;151913;-66
2022/04/21 00:05:58;;;;;;;;;;;;;;;22.47;29.39;101154.53;7282105;19;153709;-63
2022/04/21 00:08:25;;;;;;;;;;;;;;;22.47;29.02;101154.53;7277357;19;153375;-67
2022/04/21 00:10:55;;;;;;;;;;;;;;;22.41;29.19;101154.97;7282265;19;152044;-64
2022/04/21 00:13:23;;;;;;;;;;;;;;;22.40;29.30;101158.91;7279828;19;152773;-65
2022/04/21 00:15:50;;;;;;;;;;;;;;;22.37;29.29;101149.13;7288261;19;152781;-64
2022/04/21 00:18:17;;;;;;;;;;;;;;;22.35;29.53;101159.06;7276203;19;153495;-64
2022/04/21 00:20:43;;;;;;;;;;;;;;;22.36;29.79;101155.91;7280736;19;153419;-65
2022/04/21 00:23:29;;;;;;;;;;;;;;;22.34;29.61;101151.75;7281223;19;152515;-64
2022/04/21 00:26:00;;;;;;;;;;;;;;;22.29;29.78;101157.50;7278975;19;152507;-67
2022/04/21 00:28:28;;;;;;;;;;;;;;;22.28;29.49;101150.19;7279303;19;155083;-66
2022/04/21 00:30:55;;;;;;;;;;;;;;;22.22;29.86;101143.84;7279882;19;154121;-67
2022/04/21 00:33:22;;;;;;;;;;;;;;;22.24;29.74;101146.34;7280353;19;153664;-64
2022/04/21 00:35:49;;;;;;;;;;;;;;;22.20;29.67;101142.50;7278826;19;154340;-67
2022/04/21 00:38:15;;;;;;;;;;;;;;;22.15;30.09;101141.47;7283724;19;151836;-67
2022/04/21 00:40:42;;;;;;;;;;;;;;;22.14;29.94;101131.34;7276644;19;153972;-67
2022/04/21 00:43:09;;;;;;;;;;;;;;;22.11;29.99;101134.81;7279864;19;151911;-62
2022/04/21 00:45:36;;;;;;;;;;;;;;;22.08;30.11;101134.56;7277458;19;153531;-63
2022/04/21 00:48:04;;;;;;;;;;;;;;;22.05;30.16;101129.59;7278738;19;153118;-70
2022/04/21 00:50:33;;;;;;;;;;;;;;;22.04;30.08;101130.72;7279794;19;152123;-67
2022/04/21 00:53:00;;;;;;;;;;;;;;;22.00;30.39;101122.09;7280319;19;152749;-63
2022/04/21 00:55:28;;;;;;;;;;;;;;;21.99;30.17;101120.41;7277860;19;153978;-68
2022/04/21 00:57:55;;;;;;;;;;;;;;;21.98;30.20;101120.75;7285262;19;152431;-62
2022/04/21 01:00:22;;;;;;;;;;;;;;;21.92;30.30;101125.63;7293472;19;152704;-67
2022/04/21 01:02:49;;;;;;;;;;;;;;;21.92;30.69;101121.97;7285626;19;152529;-63
2022/04/21 01:05:18;;;;;;;;;;;;;;;21.90;30.60;101121.44;7286866;19;153372;-64
2022/04/21 01:07:45;;;;;;;;;;;;;;;21.89;30.54;101112.19;7284678;19;152225;-68
2022/04/21 01:10:12;;;;;;;;;;;;;;;21.85;30.96;101115.94;7286408;19;151770;-62
2022/04/21 01:12:40;;;;;;;;;;;;;;;21.81;30.58;101106.44;7285213;19;153301;-67
2022/04/21 01:15:08;;;;;;;;;;;;;;;21.81;31.12;101109.25;7284906;19;153887;-64
2022/04/21 01:17:35;;;;;;;;;;;;;;;21.79;31.18;101114.38;7285415;19;151767;-67
2022/04/21 01:20:03;;;;;;;;;;;;;;;21.77;31.25;101108.22;7284272;19;152412;-68
2022/04/21 01:22:30;;;;;;;;;;;;;;;21.74;31.18;101107.72;7290250;19;154161;-63
2022/04/21 01:24:57;;;;;;;;;;;;;;;21.71;31.48;101101.88;7286018;19;154554;-62
2022/04/21 01:27:31;;;;;;;;;;;;;;;21.70;31.50;101097.41;7284102;19;153075;-67
2022/04/21 01:29:58;;;;;;;;;;;;;;;21.66;31.43;101096.34;7283775;19;151729;-64
2022/04/21 01:32:25;;;;;;;;;;;;;;;21.65;31.42;101087.09;7285310;19;153556;-66
2022/04/21 01:34:51;;;;;;;;;;;;;;;21.62;31.18;101093.31;7283881;19;154743;-69
2022/04/21 01:42:49;;;;;;;;;;;;;;;21.55;31.61;101075.19;7283971;19;155224;-69
2022/04/21 01:45:16;;;;;;;;;;;;;;;21.54;31.93;101065.94;7291357;19;152378;-67
2022/04/21 01:47:43;;;;;;;;;;;;;;;21.50;31.73;101070.50;7283860;19;152615;-64
2022/04/21 01:50:10;;;;;;;;;;;;;;;21.50;31.71;101066.88;7284693;19;151741;-67
2022/04/21 01:52:38;;;;;;;;;;;;;;;21.51;31.93;101066.56;7285119;19;152618;-66
2022/04/21 01:55:06;;;;;;;;;;;;;;;21.49;32.04;101068.84;7283018;19;153388;-66
2022/04/21 01:57:33;;;;;;;;;;;;;;;21.46;32.23;101074.25;7285725;19;151536;-67
2022/04/21 02:00:01;;;;;;;;;;;;;;;21.44;32.18;101063.31;7281181;19;152094;-63
2022/04/21 02:02:29;;;;;;;;;;;;;;;21.41;32.18;101065.94;7280806;19;154158;-66
2022/04/21 02:05:00;;;;;;;;;;;;;;;21.40;32.12;101064.25;7262895;19;152601;-68
2022/04/21 02:07:27;;;;;;;;;;;;;;;21.37;32.30;101062.91;7289878;19;151845;-65
2022/04/21 02:09:54;;;;;;;;;;;;;;;21.35;32.28;101056.75;7284374;19;151593;-65
2022/04/21 02:12:27;;;;;;;;;;;;;;;21.32;32.57;101053.75;7281827;19;153810;-65
2022/04/21 02:14:54;;;;;;;;;;;;;;;21.34;32.34;101059.91;7280514;19;154504;-66
2022/04/21 02:17:21;;;;;;;;;;;;;;;21.32;32.54;101056.56;7281373;19;152704;-66
2022/04/21 02:19:48;;;;;;;;;;;;;;;21.29;32.44;101058.03;7281825;19;152884;-64
2022/04/21 02:22:14;;;;;;;;;;;;;;;21.28;32.48;101059.16;7282726;19;153199;-66
2022/04/21 02:24:41;;;;;;;;;;;;;;;21.23;32.49;101062.91;7282211;19;151883;-63
2022/04/21 02:27:08;;;;;;;;;;;;;;;21.24;32.71;101058.13;7290116;19;152629;-66
2022/04/21 02:29:35;;;;;;;;;;;;;;;21.22;32.74;101057.59;7283472;19;152267;-63
2022/04/21 02:32:02;;;;;;;;;;;;;;;21.19;33.07;101049.78;7282976;19;153382;-67
2022/04/21 02:34:29;;;;;;;;;;;;;;;21.17;33.02;101046.44;7282646;19;154162;-64
2022/04/21 02:36:58;;;;;;;;;;;;;;;21.16;33.20;101042.81;7283790;19;152488;-67
2022/04/21 02:39:25;;;;;;;;;;;;;;;21.15;32.82;101045.94;7279262;19;153038;-66
2022/04/21 02:41:51;;;;;;;;;;;;;;;21.11;32.97;101040.06;7282844;19;153217;-64
2022/04/21 02:44:18;;;;;;;;;;;;;;;21.12;32.98;101040.91;7282937;19;152420;-68
2022/04/21 02:46:45;;;;;;;;;;;;;;;21.08;33.01;101048.25;7284168;19;153047;-61
2022/04/21 02:49:14;;;;;;;;;;;;;;;21.07;33.29;101043.81;7289075;19;153274;-64
2022/04/21 02:51:41;;;;;;;;;;;;;;;21.06;33.32;101048.59;7283693;19;152768;-66
2022/04/21 02:59:39;;;;;;;;;;;;;;;21.04;33.19;101035.97;7279459;19;152835;-62
2022/04/21 03:02:06;;;;;;;;;;;;;;;21.01;33.57;101034.63;7255820;19;153580;-65
2022/04/21 03:04:33;;;;;;;;;;;;;;;21.00;33.32;101035.78;7279102;19;152010;-67
2022/04/21 03:07:00;;;;;;;;;;;;;;;21.02;33.77;101033.50;7278850;19;155273;-65
2022/04/21 03:09:27;;;;;;;;;;;;;;;20.97;33.69;101035.56;7281741;19;153593;-61
2022/04/21 03:11:53;;;;;;;;;;;;;;;20.97;33.65;101030.78;7291452;19;152501;-62
2022/04/21 03:14:20;;;;;;;;;;;;;;;20.97;33.98;101042.03;7279755;19;153275;-66
2022/04/21 03:16:47;;;;;;;;;;;;;;;21.00;33.86;101030.16;7282692;19;151761;-66
2022/04/21 03:19:14;;;;;;;;;;;;;;;20.96;34.08;101034.72;7278906;19;152650;-61
2022/04/21 03:24:26;;;;;;;;;;;;;;;20.90;34.25;101037.94;7283217;19;152285;-63
2022/04/21 03:26:52;;;;;;;;;;;;;;;20.91;33.94;101042.41;7281135;19;153935;-65
2022/04/21 03:29:20;;;;;;;;;;;;;;;20.90;34.11;101038.75;7281274;19;153728;-66
2022/04/21 03:31:48;;;;;;;;;;;;;;;20.90;34.30;101035.97;7282982;19;153497;-64
2022/04/21 03:34:16;;;;;;;;;;;;;;;20.86;34.29;101029.28;7289235;19;153201;-64
2022/04/21 03:36:49;;;;;;;;;;;;;;;20.84;34.33;101037.22;7282129;19;151835;-65
2022/04/21 03:39:16;;;;;;;;;;;;;;;20.81;34.16;101032.19;7281142;19;153518;-65
2022/04/21 03:41:43;;;;;;;;;;;;;;;20.78;34.48;101033.66;7280782;19;153785;-62
2022/04/21 03:44:11;;;;;;;;;;;;;;;20.78;34.25;101025.22;7280538;19;152048;-62
2022/04/21 03:46:38;;;;;;;;;;;;;;;20.75;34.26;101025.84;7282337;19;153074;-66
2022/04/21 03:49:05;;;;;;;;;;;;;;;20.76;34.19;101019.06;7280201;19;153391;-63
2022/04/21 03:51:32;;;;;;;;;;;;;;;20.75;34.58;101030.63;7280154;19;151965;-64
2022/04/21 03:53:59;;;;;;;;;;;;;;;20.73;34.68;101028.13;7279068;19;153746;-64
2022/04/21 03:56:29;;;;;;;;;;;;;;;20.71;34.61;101026.78;7288765;19;153575;-63
2022/04/21 03:58:56;;;;;;;;;;;;;;;20.69;34.46;101020.63;7281258;19;152813;-63
2022/04/21 04:01:23;;;;;;;;;;;;;;;20.68;34.43;101019.78;7253611;19;157281;-63
2022/04/21 04:03:51;;;;;;;;;;;;;;;20.68;34.37;101021.75;7275974;19;152286;-62
2022/04/21 04:11:50;;;;;;;;;;;;;;;20.71;34.62;101022.00;7276785;19;152067;-62
2022/04/21 04:14:16;;;;;;;;;;;;;;;20.73;34.72;101018.88;7272198;19;153287;-62
2022/04/21 04:16:44;;;;;;;;;;;;;;;20.79;34.68;101018.47;7276567;19;154118;-63
2022/04/21 04:19:11;;;;;;;;;;;;;;;20.83;34.87;101019.53;7287229;19;151640;-64
2022/04/21 04:21:38;;;;;;;;;;;;;;;20.89;34.85;101025.06;7280011;19;153224;-62
2022/04/21 04:24:05;;;;;;;;;;;;;;;20.95;34.82;101027.44;7281068;19;152157;-63
2022/04/21 04:26:32;;;;;;;;;;;;;;;20.95;34.90;101019.00;7281149;19;153926;-65
2022/04/21 04:28:59;;;;;;;;;;;;;;;21.02;34.86;101025.06;7279937;19;153980;-63
2022/04/21 04:31:26;;;;;;;;;;;;;;;21.05;34.58;101023.59;7283116;19;151964;-64
2022/04/21 04:33:53;;;;;;;;;;;;;;;21.07;34.59;101024.16;7288048;19;154953;-61
2022/04/21 04:36:19;;;;;;;;;;;;;;;21.13;34.39;101014.50;7286183;19;153421;-64
2022/04/21 04:38:48;;;;;;;;;;;;;;;21.15;34.41;101023.44;7294448;19;151882;-64
2022/04/21 04:44:02;;;;;;;;;;;;;;;21.25;34.40;101020.44;7286945;19;151745;-64
2022/04/21 04:46:38;;;;;;;;;;;;;;;21.32;34.12;101017.19;7285369;19;153294;-64
2022/04/21 04:49:06;;;;;;;;;;;;;;;21.38;34.23;101019.63;7283584;19;153955;-63
2022/04/21 04:51:33;;;;;;;;;;;;;;;21.41;34.47;101018.97;7286576;19;151766;-66
2022/04/21 04:54:01;;;;;;;;;;;;;;;21.44;34.21;101015.53;7284449;19;152464;-63
2022/04/21 04:56:27;;;;;;;;;;;;;;;21.50;34.24;101013.44;7283687;19;153838;-66
2022/04/21 04:58:55;;;;;;;;;;;;;;;21.54;33.94;101020.09;7286424;19;151478;-63
2022/04/21 05:01:42;;;;;;;;;;;;;;;21.58;33.78;101013.53;7266882;19;156502;-64
2022/04/21 05:04:09;;;;;;;;;;;;;;;21.63;34.25;101010.63;7285202;19;152114;-62
2022/04/21 05:06:37;;;;;;;;;;;;;;;21.68;34.16;101012.50;7282696;19;152775;-63
2022/04/21 05:09:05;;;;;;;;;;;;;;;21.74;33.78;101000.84;7281837;19;156042;-68
2022/04/21 05:11:33;;;;;;;;;;;;;;;21.77;33.69;100999.34;7285681;19;151934;-63
2022/04/21 05:14:03;;;;;;;;;;;;;;;21.81;33.71;101006.00;7283844;19;153830;-64
2022/04/21 05:16:30;;;;;;;;;;;;;;;21.83;33.65;101003.72;7285032;19;155004;-69
2022/04/21 05:18:57;;;;;;;;;;;;;;;21.89;33.86;101001.63;7283578;19;152067;-63
2022/04/21 05:21:24;;;;;;;;;;;;;;;21.94;33.90;101008.00;7286843;19;153006;-67
2022/04/21 05:23:56;;;;;;;;;;;;;;;21.97;33.90;101003.72;7290287;19;154480;-65
2022/04/21 05:26:23;;;;;;;;;;;;;;;22.01;33.77;100999.13;7285767;19;152700;-68
2022/04/21 05:28:50;;;;;;;;;;;;;;;22.07;33.47;101000.69;7284650;19;154172;-62
2022/04/21 05:31:17;;;;;;;;;;;;;;;22.07;33.55;100995.88;7283524;19;151615;-65
2022/04/21 05:33:44;;;;;;;;;;;;;;;22.09;33.52;101004.00;7285599;19;152572;-63
2022/04/21 05:36:10;;;;;;;;;;;;;;;22.12;33.86;100998.56;7284916;19;153246;-65
2022/04/21 05:38:37;;;;;;;;;;;;;;;22.14;33.88;101001.06;7283565;19;151847;-61
2022/04/21 05:41:04;;;;;;;;;;;;;;;22.16;33.67;101002.44;7284685;19;153029;-68
2022/04/21 05:43:34;;;;;;;;;;;;;;;22.19;33.69;101000.94;7283289;19;153343;-66
2022/04/21 05:46:01;;;;;;;;;;;;;;;22.25;33.88;101005.31;7292213;19;152180;-64
2022/04/21 05:48:27;;;;;;;;;;;;;;;22.26;33.62;101004.13;7284786;19;153192;-66
2022/04/21 05:50:57;;;;;;;;;;;;;;;22.31;33.58;101012.47;7286274;19;151966;-66
2022/04/21 05:53:26;;;;;;;;;;;;;;;22.34;33.44;100997.75;7285957;19;155262;-66
2022/04/21 05:55:54;;;;;;;;;;;;;;;22.37;33.80;101007.53;7285398;19;155456;-65
2022/04/21 05:58:22;;;;;;;;;;;;;;;22.39;33.53;101005.25;7283644;19;152559;-63
2022/04/21 06:00:49;;;;;;;;;;;;;;;22.39;33.68;101008.91;7284682;19;153755;-63
2022/04/21 06:03:23;;;;;;;;;;;;;;;22.43;33.53;101011.91;7284245;19;153551;-64
2022/04/21 06:05:50;;;;;;;;;;;;;;;22.43;33.25;101009.91;7283682;19;151948;-64
2022/04/21 06:08:16;;;;;;;;;;;;;;;22.46;33.63;101012.09;7289330;19;153290;-69
2022/04/21 06:10:43;;;;;;;;;;;;;;;22.49;33.54;101011.44;7285626;19;152131;-64
2022/04/21 06:13:12;;;;;;;;;;;;;;;22.52;33.64;101010.81;7281859;19;153573;-66
2022/04/21 06:15:39;;;;;;;;;;;;;;;22.56;33.58;101014.66;7283537;19;154554;-61
2022/04/21 06:18:06;;;;;;;;;;;;;;;22.57;33.16;101013.50;7285429;19;152132;-65
2022/04/21 06:20:35;;;;;;;;;;;;;;;22.57;33.37;101019.13;7283563;19;153569;-63
2022/04/21 06:23:02;;;;;;;;;;;;;;;22.61;33.20;101008.88;7283441;19;153856;-66
2022/04/21 06:25:28;;;;;;;;;;;;;;;22.66;33.54;101021.16;7283258;19;152100;-66
2022/04/21 06:27:55;;;;;;;;;;;;;;;22.65;33.13;101013.88;7285091;19;152324;-64
2022/04/21 06:30:23;;;;;;;;;;;;;;;22.67;33.20;101005.94;7290877;19;151836;-67
2022/04/21 06:32:50;;;;;;;;;;;;;;;22.70;33.39;101020.25;7284400;19;152738;-64
2022/04/21 06:35:17;;;;;;;;;;;;;;;22.71;33.44;101010.66;7283658;19;153797;-66
2022/04/21 06:37:46;;;;;;;;;;;;;;;22.75;33.29;101010.81;7282848;19;152392;-67
2022/04/21 06:40:13;;;;;;;;;;;;;;;22.78;32.96;101018.63;7281635;19;153279;-64
2022/04/21 06:42:42;;;;;;;;;;;;;;;22.79;33.05;101018.31;7283635;19;153247;-64
2022/04/21 06:48:03;;;;;;;;;;;;;;;22.88;33.23;101018.34;7283791;19;154050;-65
2022/04/21 06:50:34;;;;;;;;;;;;;;;22.91;33.30;101007.25;7290114;19;154051;-66
2022/04/21 06:53:02;;;;;;;;;;;;;;;22.92;33.02;101008.09;7282483;19;151847;-64
2022/04/21 06:55:29;;;;;;;;;;;;;;;22.94;33.44;101006.59;7282271;19;155771;-61
2022/04/21 06:57:56;;;;;;;;;;;;;;;22.96;33.18;101009.94;7282769;19;152614;-65
2022/04/21 07:00:24;;;;;;;;;;;;;;;22.96;33.23;101012.78;7282816;19;153566;-68
2022/04/21 07:02:51;;;;;;;;;;;;;;;23.00;33.49;101018.59;7281364;19;153848;-66
2022/04/21 07:05:18;;;;;;;;;;;;;;;22.99;33.08;101009.28;7283816;19;152385;-67
2022/04/21 07:07:45;;;;;;;;;;;;;;;23.04;33.12;101009.16;7283311;19;152649;-65
2022/04/21 07:10:14;;;;;;;;;;;;;;;23.04;33.15;101013.97;7282488;19;154108;-66
2022/04/21 07:12:41;;;;;;;;;;;;;;;23.08;33.39;101014.16;7288754;19;154321;-65
2022/04/21 07:15:08;;;;;;;;;;;;;;;23.03;33.26;101012.31;7284454;19;153268;-62
2022/04/21 07:17:36;;;;;;;;;;;;;;;23.05;33.21;101010.00;7283217;19;153991;-67
2022/04/21 07:20:04;;;;;;;;;;;;;;;23.09;33.45;101007.34;7282532;19;153504;-68
2022/04/21 07:22:30;;;;;;;;;;;;;;;23.07;32.95;101010.50;7280508;19;153154;-62
2022/04/21 07:24:58;;;;;;;;;;;;;;;23.10;33.13;101009.00;7282276;19;151911;-61
2022/04/21 07:27:25;;;;;;;;;;;;;;;23.10;32.89;101009.84;7281112;19;152816;-63
2022/04/21 07:29:52;;;;;;;;;;;;;;;23.09;32.96;101007.34;7281733;19;153119;-66
2022/04/21 07:32:19;;;;;;;;;;;;;;;23.09;32.89;101010.16;7283252;19;152086;-65
2022/04/21 07:34:46;;;;;;;;;;;;;;;23.10;33.20;101014.66;7286828;19;153887;-66
2022/04/21 07:37:13;;;;;;;;;;;;;;;23.13;33.12;101014.00;7280594;19;152500;-65
2022/04/21 07:39:40;;;;;;;;;;;;;;;23.10;33.21;101020.28;7282418;19;153724;-63
2022/04/21 07:42:08;;;;;;;;;;;;;;;23.10;33.06;101012.66;7278911;19;154223;-64
2022/04/21 07:44:35;;;;;;;;;;;;;;;23.11;33.33;101019.97;7283621;19;152266;-65
2022/04/21 07:47:03;;;;;;;;;;;;;;;23.08;33.29;101020.59;7283364;19;152489;-63
2022/04/21 07:49:45;;;;;;;;;;;;;;;23.08;33.42;101025.44;7281681;19;154518;-63
2022/04/21 07:54:57;;;;;;;;;;;;;;;23.02;33.00;101017.13;7282504;19;153182;-65
2022/04/21 07:57:24;;;;;;;;;;;;;;;23.04;33.44;101016.78;7286849;19;152947;-63
2022/04/21 07:59:51;;;;;;;;;;;;;;;22.98;33.47;101009.63;7282111;19;153914;-65
2022/04/21 08:02:17;;;;;;;;;;;;;;;22.96;33.15;101017.56;7278637;19;153413;-63
2022/04/21 08:04:47;;;;;;;;;;;;;;;22.93;33.45;101019.06;7281740;19;152228;-67
2022/04/21 08:07:14;;;;;;;;;;;;;;;22.90;33.29;101018.84;7282832;19;153294;-62
2022/04/21 08:09:41;;;;;;;;;;;;;;;22.88;33.82;101022.00;7281393;19;153255;-65
2022/04/21 08:12:07;;;;;;;;;;;;;;;;;;7282180;19;152165;-63
2022/04/21 08:14:35;;;;;;;;;;;;;;;22.85;33.62;101022.63;7277461;19;182887;-63
2022/04/21 08:17:02;;;;;;;;;;;;;;;22.83;33.57;101029.75;7281114;19;153812;-62
2022/04/21 08:19:29;;;;;;;;;;;;;;;22.81;33.49;101026.41;7287718;19;152073;-69
2022/04/21 08:21:56;;;;;;;;;;;;;;;22.79;33.73;101020.28;7278271;19;154027;-66
2022/04/21 08:33:14;;;;;;;;;;;;;;;22.71;33.85;101021.91;7281604;19;152574;-63
2022/04/21 08:35:41;;;;;;;;;;;;;;;22.69;33.91;101017.69;7279860;19;154027;-65
2022/04/21 08:38:09;;;;;;;;;;;;;;;22.65;33.75;101023.16;7280438;19;152302;-62
2022/04/21 08:40:45;;;;;;;;;;;;;;;22.65;34.17;101020.34;7286682;19;152023;-63
2022/04/21 08:43:15;;;;;;;;;;;;;;;22.62;34.13;101018.97;7280352;19;154083;-67
2022/04/21 08:45:43;;;;;;;;;;;;;;;22.63;34.09;101019.81;7280942;19;151956;-66
2022/04/21 08:48:10;;;;;;;;;;;;;;;22.63;34.30;101015.00;7281354;19;151911;-61
2022/04/21 08:50:37;;;;;;;;;;;;;;;22.58;33.79;101011.50;7280333;19;153524;-68
2022/04/21 08:53:09;;;;;;;;;;;;;;;22.58;33.90;101009.50;7279611;19;153069;-63
2022/04/21 08:55:36;;;;;;;;;;;;;;;22.57;33.96;101019.13;7281682;19;152224;-66
2022/04/21 08:58:03;;;;;;;;;;;;;;;22.57;34.22;101016.31;7279291;19;153263;-63
2022/04/21 09:00:32;;;;;;;;;;;;;;;22.56;34.12;101023.09;7279540;19;152115;-64
2022/04/21 09:02:59;;;;;;;;;;;;;;;22.58;34.26;101008.69;7284680;19;153232;-66
2022/04/21 09:05:27;;;;;;;;;;;;;;;22.58;34.04;101015.16;7281203;19;152448;-61
2022/04/21 09:07:55;;;;;;;;;;;;;;;22.60;34.15;101012.84;7277828;19;153420;-63
2022/04/21 09:10:42;;;;;;;;;;;;;;;22.67;34.02;101008.75;7276917;19;155364;-65
2022/04/21 09:13:08;;;;;;;;;;;;;;;22.73;34.25;101015.94;7279016;19;152387;-64
2022/04/21 09:15:43;;;;;;;;;;;;;;;22.79;33.92;101009.03;7280020;19;153506;-64
2022/04/21 09:18:10;;;;;;;;;;;;;;;22.84;33.78;101006.06;7281205;19;153617;-65
2022/04/21 09:20:39;;;;;;;;;;;;;;;22.88;34.04;101007.09;7286156;19;152392;-65
2022/04/21 09:23:07;;;;;;;;;;;;;;;22.93;33.73;101002.16;7287221;19;155528;-63
2022/04/21 09:25:42;;;;;;;;;;;;;;;22.98;33.90;101001.19;7293270;19;153128;-62
2022/04/21 09:28:20;;;;;;;;;;;;;;;23.02;33.81;101003.03;7285799;19;152593;-63
2022/04/21 09:30:47;;;;;;;;;;;;;;;23.07;34.06;100998.41;7285775;19;154433;-62
2022/04/21 09:33:25;;;;;;;;;;;;;;;23.10;34.10;101000.56;7286012;19;152203;-61
2022/04/21 09:35:52;;;;;;;;;;;;;;;23.15;33.78;101001.25;7286701;19;154307;-64
2022/04/21 09:38:19;;;;;;;;;;;;;;;23.17;33.67;100996.09;7284703;19;153227;-65
2022/04/21 09:40:46;;;;;;;;;;;;;;;23.21;33.53;100996.31;7286358;19;151804;-67
2022/04/21 09:43:13;;;;;;;;;;;;;;;23.26;33.66;101013.09;7285579;19;153929;-64
2022/04/21 09:48:29;;;;;;;;;;;;;;;23.32;33.60;101017.41;7292704;19;151997;-64
2022/04/21 09:51:10;;;;;;;;;;;;;;;23.34;33.51;101007.47;7283007;19;152245;-63
2022/04/21 09:53:51;;;;;;;;;;;;;;;23.37;33.32;101009.63;7284814;19;151933;-65
2022/04/21 09:56:18;;;;;;;;;;;;;;;23.41;33.23;101010.63;7284206;19;152000;-65
2022/04/21 09:58:45;;;;;;;;;;;;;;;23.43;33.56;101001.88;7281876;19;154137;-65
2022/04/21 10:01:12;;;;;;;;;;;;;;;23.44;33.64;101001.56;7285549;19;152329;-64
2022/04/21 10:03:43;;;;;;;;;;;;;;;23.47;33.29;101000.91;7284761;19;151869;-64
2022/04/21 10:06:10;;;;;;;;;;;;;;;23.50;33.15;101002.22;7282669;19;154166;-67
2022/04/21 10:08:40;;;;;;;;;;;;;;;23.49;33.40;101004.22;7285332;19;152010;-62
2022/04/21 10:11:08;;;;;;;;;;;;;;;23.52;33.31;101001.91;7292757;19;153100;-63
2022/04/21 10:13:35;;;;;;;;;;;;;;;23.53;33.28;101003.59;7282250;19;151610;-64
2022/04/21 10:16:02;;;;;;;;;;;;;;;23.56;33.42;100983.19;7285204;19;152820;-64
2022/04/21 10:18:29;;;;;;;;;;;;;;;23.58;33.51;100998.59;7284440;19;153361;-63
2022/04/21 10:20:56;;;;;;;;;;;;;;;23.59;33.42;100996.63;7285152;19;152509;-66
2022/04/21 10:23:26;;;;;;;;;;;;;;;23.60;33.51;100995.47;7285118;19;153768;-66
2022/04/21 10:26:00;;;;;;;;;;;;;;;23.62;33.00;101001.63;7284433;19;153251;-63
2022/04/21 10:28:50;;;;;;;;;;;;;;;23.61;33.40;100991.50;7280248;19;152394;-68
2022/04/21 10:31:30;;;;;;;;;;;;;;;23.61;33.36;100997.13;7284898;19;152784;-66
2022/04/21 10:33:58;;;;;;;;;;;;;;;23.61;33.23;100988.66;7291496;19;154255;-66
2022/04/21 10:36:47;;;;;;;;;;;;;;;23.63;32.57;100989.16;7283010;19;152795;-66
2022/04/21 10:39:17;;;;;;;;;;;;;;;23.64;32.93;100991.66;7283781;19;152949;-65
2022/04/21 10:41:43;;;;;;;;;;;;;;;23.65;33.17;100990.50;7283598;19;152892;-65
2022/04/21 10:44:14;;;;;;;;;;;;;;;23.65;33.09;100993.31;7285036;19;153684;-64
2022/04/21 10:46:41;;;;;;;;;;;;;;;23.64;32.83;101002.09;7283185;19;153936;-65
2022/04/21 10:49:52;;;;;;;;;;;;;;;23.65;33.25;101003.78;7283112;19;151823;-65
2022/04/21 10:57:47;;;;;;;;;;;;;;;23.66;32.84;100992.16;7284214;19;151960;-64
2022/04/21 11:00:30;;;;;;;;;;;;;;;23.68;32.60;100991.81;7282918;19;154423;-66
2022/04/21 11:03:04;;;;;;;;;;;;;;;23.69;32.82;100982.22;7280799;19;152438;-67
2022/04/21 11:05:31;;;;;;;;;;;;;;;23.66;33.21;100977.22;7284464;19;152644;-62
2022/04/21 11:07:59;;;;;;;;;;;;;;;23.68;33.00;100977.72;7282393;19;154024;-62
2022/04/21 11:10:38;;;;;;;;;;;;;;;23.67;32.85;100990.16;7284416;19;151670;-65
2022/04/21 11:13:06;;;;;;;;;;;;;;;23.67;32.76;100976.88;7280826;19;153140;-64
2022/04/21 11:15:33;;;;;;;;;;;;;;;23.66;33.25;100986.53;7283065;19;154026;-63
2022/04/21 11:18:12;;;;;;;;;;;;;;;23.65;33.00;100981.22;7289572;19;151848;-66
2022/04/21 11:20:43;;;;;;;;;;;;;;;23.65;33.18;100982.03;7283417;19;153954;-63
2022/04/21 11:23:21;;;;;;;;;;;;;;;23.64;32.99;100983.19;7282203;19;151484;-64
2022/04/21 11:25:48;;;;;;;;;;;;;;;23.64;32.79;100971.91;7282295;19;152936;-65
2022/04/21 11:28:23;;;;;;;;;;;;;;;23.64;33.02;100976.72;7282830;19;153228;-65
2022/04/21 11:30:55;;;;;;;;;;;;;;;23.63;32.91;100978.69;7283721;19;152079;-65
2022/04/21 11:33:22;;;;;;;;;;;;;;;23.62;32.64;100970.59;7283293;19;154687;-64
2022/04/21 11:35:48;;;;;;;;;;;;;;;23.64;32.61;100973.91;7280658;19;154046;-68
2022/04/21 11:38:15;;;;;;;;;;;;;;;23.61;32.64;100964.13;7281522;19;152561;-65
2022/04/21 11:40:44;;;;;;;;;;;;;;;23.59;32.67;100976.88;7289140;19;153006;-67
2022/04/21 11:43:11;;;;;;;;;;;;;;;23.58;32.38;100964.75;7278545;19;151851;-64
2022/04/21 11:45:40;;;;;;;;;;;;;;;23.60;32.81;100973.72;7283247;19;153481;-64
2022/04/21 11:48:12;;;;;;;;;;;;;;;23.58;32.62;100964.75;7282428;19;154225;-63
2022/04/21 11:50:47;;;;;;;;;;;;;;;23.57;32.99;100953.81;7283339;19;152048;-63
2022/04/21 11:53:18;;;;;;;;;;;;;;;23.60;33.02;100961.63;7283838;19;154590;-61
2022/04/21 11:55:46;;;;;;;;;;;;;;;23.57;32.75;100954.66;7281214;19;153420;-66
2022/04/21 11:58:13;;;;;;;;;;;;;;;23.56;32.89;100953.00;7282515;19;151787;-67
2022/04/21 12:06:28;;;;;;;;;;;;;;;23.52;33.04;100948.34;7279940;19;153776;-62
2022/04/21 12:08:55;;;;;;;;;;;;;;;23.50;32.85;100945.84;7278701;19;154616;-66
2022/04/21 12:11:23;;;;;;;;;;;;;;;23.49;32.76;100949.81;7280851;19;152188;-68
2022/04/21 12:13:50;;;;;;;;;;;;;;;23.48;32.97;100951.00;7277232;19;152541;-65
2022/04/21 12:16:36;;;;;;;;;;;;;;;23.47;32.88;100943.69;7280585;19;154246;-68
2022/04/21 12:19:13;;;;;;;;;;;;;;;23.46;33.01;100948.47;7280367;19;152394;-69
2022/04/21 12:21:40;;;;;;;;;;;;;;;23.47;33.12;100958.63;7280505;19;153311;-66
2022/04/21 12:24:14;;;;;;;;;;;;;;;23.45;33.14;100946.81;7278851;19;154813;-62
2022/04/21 12:26:50;;;;;;;;;;;;;;;23.43;33.08;100940.66;7287213;19;151986;-64
2022/04/21 12:29:18;;;;;;;;;;;;;;;23.44;33.04;100944.31;7276373;19;153550;-65
2022/04/21 12:31:52;;;;;;;;;;;;;;;23.44;32.91;100945.16;7281141;19;151684;-62
2022/04/21 12:34:23;;;;;;;;;;;;;;;23.42;33.10;100944.63;7279930;19;153734;-64
2022/04/21 12:36:54;;;;;;;;;;;;;;;23.41;33.28;100934.50;7279943;19;154896;-65
2022/04/21 12:39:21;;;;;;;;;;;;;;;23.39;32.97;100942.44;7280387;19;152349;-66
2022/04/21 12:42:09;;;;;;;;;;;;;;;23.39;33.06;100947.28;7280841;19;155345;-65
2022/04/21 12:44:36;;;;;;;;;;;;;;;23.37;33.19;100932.66;7280160;19;155050;-65
2022/04/21 12:47:17;;;;;;;;;;;;;;;23.40;33.06;100941.28;7278731;19;152092;-66
2022/04/21 12:49:56;;;;;;;;;;;;;;;23.35;33.42;100930.16;7287585;19;152889;-68
2022/04/21 12:52:39;;;;;;;;;;;;;;;23.36;33.25;100926.19;7283603;19;151757;-63
2022/04/21 12:55:06;;;;;;;;;;;;;;;23.34;33.39;100925.72;7287641;19;153294;-67
2022/04/21 12:57:34;;;;;;;;;;;;;;;23.35;33.13;100920.88;7286463;19;154222;-66
2022/04/21 13:00:01;;;;;;;;;;;;;;;23.35;33.56;100916.06;7284923;19;151924;-62
2022/04/21 13:02:28;;;;;;;;;;;;;;;23.31;33.14;100917.88;7286525;19;153394;-66
2022/04/21 13:04:55;;;;;;;;;;;;;;;23.30;33.64;100919.06;7283581;19;153480;-64
2022/04/21 13:07:27;;;;;;;;;;;;;;;23.32;33.33;100905.44;7285552;19;151837;-64
2022/04/21 13:09:54;;;;;;;;;;;;;;;23.30;33.68;100919.06;7294171;19;154639;-66
2022/04/21 13:12:21;;;;;;;;;;;;;;;23.28;33.47;100904.44;7284847;19;152106;-66
2022/04/21 13:14:50;;;;;;;;;;;;;;;23.29;33.60;100908.94;7284797;19;153287;-64
2022/04/21 13:17:18;;;;;;;;;;;;;;;23.28;33.62;100904.44;7283532;19;153318;-64
2022/04/21 13:19:47;;;;;;;;;;;;;;;23.29;33.64;100908.09;7285690;19;152113;-66
2022/04/21 13:22:15;;;;;;;;;;;;;;;23.25;33.63;100899.47;7286356;19;152956;-65
2022/04/21 13:24:45;;;;;;;;;;;;;;;23.24;33.78;100900.63;7285467;19;155982;-65
2022/04/21 13:27:11;;;;;;;;;;;;;;;23.24;33.57;100889.34;7284990;19;152174;-63